sensor_id;sensor_type;location;lat;lon;timestamp;P1;durP1;ratioP1;P2;durP2;ratioP2
944;SDS011;459;48.676;9.034;2023-03-21T00:00:46;3.90;;;3.23;;
944;SDS011;459;48.676;9.034;2023-03-21T00:03:12;6.10;;;3.87;;
944;SDS011;459;48.676;9.034;2023-03-21T00:05:38;3.23;;;2.93;;
944;SDS011;459;48.676;9.034;2023-03-21T00:08:04;4.43;;;3.47;;
944;SDS011;459;48.676;9.034;2023-03-21T00:10:30;4.13;;;2.83;;
944;SDS011;459;48.676;9.034;2023-03-21T00:12:55;4.10;;;3.70;;
944;SDS011;459;48.676;9.034;2023-03-21T00:15:22;5.13;;;3.07;;
944;SDS011;459;48.676;9.034;2023-03-21T00:17:50;3.60;;;3.30;;
944;SDS011;459;48.676;9.034;2023-03-21T00:20:15;3.90;;;3.50;;
944;SDS011;459;48.676;9.034;2023-03-21T00:22:40;3.20;;;2.90;;
944;SDS011;459;48.676;9.034;2023-03-21T00:25:06;3.43;;;3.13;;
944;SDS011;459;48.676;9.034;2023-03-21T00:27:32;3.00;;;2.77;;
944;SDS011;459;48.676;9.034;2023-03-21T00:29:57;4.40;;;3.23;;
944;SDS011;459;48.676;9.034;2023-03-21T00:32:22;3.83;;;3.50;;
944;SDS011;459;48.676;9.034;2023-03-21T00:34:48;3.63;;;3.33;;
944;SDS011;459;48.676;9.034;2023-03-21T00:37:14;4.30;;;3.63;;
944;SDS011;459;48.676;9.034;2023-03-21T00:39:41;3.23;;;2.93;;
944;SDS011;459;48.676;9.034;2023-03-21T00:42:07;5.63;;;3.73;;
944;SDS011;459;48.676;9.034;2023-03-21T00:44:32;3.10;;;2.60;;
944;SDS011;459;48.676;9.034;2023-03-21T00:47:04;3.33;;;3.03;;
944;SDS011;459;48.676;9.034;2023-03-21T00:49:29;3.17;;;2.93;;
944;SDS011;459;48.676;9.034;2023-03-21T00:51:58;4.40;;;3.10;;
944;SDS011;459;48.676;9.034;2023-03-21T00:54:23;3.30;;;3.00;;
944;SDS011;459;48.676;9.034;2023-03-21T00:56:48;3.67;;;3.23;;
944;SDS011;459;48.676;9.034;2023-03-21T00:59:13;3.27;;;3.00;;
944;SDS011;459;48.676;9.034;2023-03-21T01:01:39;3.43;;;3.13;;
944;SDS011;459;48.676;9.034;2023-03-21T01:04:04;5.80;;;3.50;;
944;SDS011;459;48.676;9.034;2023-03-21T01:06:35;3.97;;;2.90;;
944;SDS011;459;48.676;9.034;2023-03-21T01:09:03;3.17;;;2.87;;
944;SDS011;459;48.676;9.034;2023-03-21T01:11:29;2.63;;;2.33;;
944;SDS011;459;48.676;9.034;2023-03-21T01:13:54;2.60;;;2.40;;
944;SDS011;459;48.676;9.034;2023-03-21T01:16:20;3.33;;;2.67;;
944;SDS011;459;48.676;9.034;2023-03-21T01:18:45;3.40;;;3.10;;
944;SDS011;459;48.676;9.034;2023-03-21T01:21:11;3.13;;;2.70;;
944;SDS011;459;48.676;9.034;2023-03-21T01:23:37;2.73;;;2.43;;
944;SDS011;459;48.676;9.034;2023-03-21T01:26:03;3.27;;;2.97;;
944;SDS011;459;48.676;9.034;2023-03-21T01:28:28;3.20;;;2.90;;
944;SDS011;459;48.676;9.034;2023-03-21T01:30:54;3.50;;;2.73;;
944;SDS011;459;48.676;9.034;2023-03-21T01:33:20;3.30;;;2.47;;
944;SDS011;459;48.676;9.034;2023-03-21T01:35:46;2.10;;;1.90;;
944;SDS011;459;48.676;9.034;2023-03-21T01:38:11;3.10;;;2.63;;
944;SDS011;459;48.676;9.034;2023-03-21T01:40:37;3.03;;;2.73;;
944;SDS011;459;48.676;9.034;2023-03-21T01:43:02;2.57;;;2.37;;
944;SDS011;459;48.676;9.034;2023-03-21T01:48:12;3.47;;;2.90;;
944;SDS011;459;48.676;9.034;2023-03-21T01:50:37;2.50;;;2.30;;
944;SDS011;459;48.676;9.034;2023-03-21T01:53:04;2.40;;;2.20;;
944;SDS011;459;48.676;9.034;2023-03-21T01:55:30;2.87;;;2.67;;
944;SDS011;459;48.676;9.034;2023-03-21T01:57:56;3.30;;;2.50;;
944;SDS011;459;48.676;9.034;2023-03-21T02:00:22;2.97;;;2.60;;
944;SDS011;459;48.676;9.034;2023-03-21T02:02:48;3.30;;;2.37;;
944;SDS011;459;48.676;9.034;2023-03-21T02:05:25;3.20;;;2.43;;
944;SDS011;459;48.676;9.034;2023-03-21T02:07:52;4.03;;;2.97;;
944;SDS011;459;48.676;9.034;2023-03-21T02:10:17;4.40;;;2.57;;
944;SDS011;459;48.676;9.034;2023-03-21T02:12:43;3.60;;;2.60;;
944;SDS011;459;48.676;9.034;2023-03-21T02:15:11;2.70;;;2.50;;
944;SDS011;459;48.676;9.034;2023-03-21T02:17:42;2.87;;;2.60;;
944;SDS011;459;48.676;9.034;2023-03-21T02:23:01;2.87;;;2.43;;
944;SDS011;459;48.676;9.034;2023-03-21T02:28:12;4.00;;;2.30;;
944;SDS011;459;48.676;9.034;2023-03-21T02:30:52;4.00;;;2.17;;
944;SDS011;459;48.676;9.034;2023-03-21T02:38:31;2.83;;;2.30;;
944;SDS011;459;48.676;9.034;2023-03-21T02:43:27;5.95;;;2.42;;
944;SDS011;459;48.676;9.034;2023-03-21T02:48:21;2.70;;;2.50;;
944;SDS011;459;48.676;9.034;2023-03-21T02:50:50;2.93;;;2.57;;
944;SDS011;459;48.676;9.034;2023-03-21T02:53:17;3.03;;;2.80;;
944;SDS011;459;48.676;9.034;2023-03-21T02:55:43;3.53;;;3.23;;
944;SDS011;459;48.676;9.034;2023-03-21T02:58:10;3.33;;;3.03;;
944;SDS011;459;48.676;9.034;2023-03-21T03:00:36;3.00;;;2.70;;
944;SDS011;459;48.676;9.034;2023-03-21T03:03:02;3.53;;;3.23;;
944;SDS011;459;48.676;9.034;2023-03-21T03:05:29;3.37;;;2.77;;
944;SDS011;459;48.676;9.034;2023-03-21T03:15:39;3.70;;;3.40;;
944;SDS011;459;48.676;9.034;2023-03-21T03:18:11;4.40;;;4.00;;
944;SDS011;459;48.676;9.034;2023-03-21T03:20:56;4.30;;;3.83;;
944;SDS011;459;48.676;9.034;2023-03-21T03:23:34;4.60;;;3.93;;
944;SDS011;459;48.676;9.034;2023-03-21T03:26:48;4.13;;;3.33;;
944;SDS011;459;48.676;9.034;2023-03-21T03:28:48;3.27;;;3.07;;
944;SDS011;459;48.676;9.034;2023-03-21T03:31:15;2.80;;;2.57;;
944;SDS011;459;48.676;9.034;2023-03-21T03:33:45;2.73;;;2.53;;
944;SDS011;459;48.676;9.034;2023-03-21T03:36:12;7.03;;;2.77;;
944;SDS011;459;48.676;9.034;2023-03-21T03:38:39;2.70;;;2.50;;
944;SDS011;459;48.676;9.034;2023-03-21T03:41:27;3.43;;;3.13;;
944;SDS011;459;48.676;9.034;2023-03-21T03:43:52;2.90;;;2.70;;
944;SDS011;459;48.676;9.034;2023-03-21T03:46:34;3.63;;;2.50;;
944;SDS011;459;48.676;9.034;2023-03-21T03:49:04;3.63;;;3.33;;
944;SDS011;459;48.676;9.034;2023-03-21T03:51:32;3.60;;;3.30;;
944;SDS011;459;48.676;9.034;2023-03-21T03:54:10;3.93;;;3.63;;
944;SDS011;459;48.676;9.034;2023-03-21T03:56:37;3.53;;;3.33;;
944;SDS011;459;48.676;9.034;2023-03-21T03:59:03;3.67;;;3.37;;
944;SDS011;459;48.676;9.034;2023-03-21T04:01:28;4.53;;;3.90;;
944;SDS011;459;48.676;9.034;2023-03-21T04:03:53;4.30;;;4.00;;
944;SDS011;459;48.676;9.034;2023-03-21T04:06:18;4.27;;;3.87;;
944;SDS011;459;48.676;9.034;2023-03-21T04:08:46;4.50;;;4.10;;
944;SDS011;459;48.676;9.034;2023-03-21T04:11:14;3.67;;;3.37;;
944;SDS011;459;48.676;9.034;2023-03-21T04:13:40;4.67;;;4.20;;
944;SDS011;459;48.676;9.034;2023-03-21T04:16:05;3.87;;;3.57;;
944;SDS011;459;48.676;9.034;2023-03-21T04:18:30;3.80;;;3.40;;
944;SDS011;459;48.676;9.034;2023-03-21T04:20:56;5.03;;;3.30;;
944;SDS011;459;48.676;9.034;2023-03-21T04:23:22;3.97;;;3.67;;
944;SDS011;459;48.676;9.034;2023-03-21T04:25:47;3.13;;;2.83;;
944;SDS011;459;48.676;9.034;2023-03-21T04:28:12;3.70;;;2.73;;
944;SDS011;459;48.676;9.034;2023-03-21T04:30:37;3.10;;;2.80;;
944;SDS011;459;48.676;9.034;2023-03-21T04:33:03;3.83;;;3.53;;
944;SDS011;459;48.676;9.034;2023-03-21T04:35:28;4.70;;;3.97;;
944;SDS011;459;48.676;9.034;2023-03-21T04:37:53;3.67;;;3.37;;
944;SDS011;459;48.676;9.034;2023-03-21T04:40:19;3.97;;;3.40;;
944;SDS011;459;48.676;9.034;2023-03-21T04:42:46;4.37;;;3.27;;
944;SDS011;459;48.676;9.034;2023-03-21T04:45:11;3.70;;;3.40;;
944;SDS011;459;48.676;9.034;2023-03-21T04:47:37;2.90;;;2.70;;
944;SDS011;459;48.676;9.034;2023-03-21T04:50:02;3.93;;;3.30;;
944;SDS011;459;48.676;9.034;2023-03-21T04:52:27;3.10;;;2.83;;
944;SDS011;459;48.676;9.034;2023-03-21T04:54:52;3.70;;;3.40;;
944;SDS011;459;48.676;9.034;2023-03-21T04:57:17;3.63;;;3.33;;
944;SDS011;459;48.676;9.034;2023-03-21T04:59:43;4.10;;;3.50;;
944;SDS011;459;48.676;9.034;2023-03-21T05:02:08;3.63;;;3.33;;
944;SDS011;459;48.676;9.034;2023-03-21T05:04:33;4.70;;;3.40;;
944;SDS011;459;48.676;9.034;2023-03-21T05:06:58;3.30;;;2.50;;
944;SDS011;459;48.676;9.034;2023-03-21T05:09:24;2.90;;;2.70;;
944;SDS011;459;48.676;9.034;2023-03-21T05:11:50;4.47;;;3.03;;
944;SDS011;459;48.676;9.034;2023-03-21T05:14:16;3.73;;;3.40;;
944;SDS011;459;48.676;9.034;2023-03-21T05:16:43;3.10;;;2.90;;
944;SDS011;459;48.676;9.034;2023-03-21T05:19:28;3.30;;;3.00;;
944;SDS011;459;48.676;9.034;2023-03-21T05:22:03;3.53;;;2.87;;
944;SDS011;459;48.676;9.034;2023-03-21T05:24:29;3.17;;;2.97;;
944;SDS011;459;48.676;9.034;2023-03-21T05:26:55;3.83;;;3.53;;
944;SDS011;459;48.676;9.034;2023-03-21T05:29:20;3.13;;;2.83;;
944;SDS011;459;48.676;9.034;2023-03-21T05:31:45;4.23;;;3.83;;
944;SDS011;459;48.676;9.034;2023-03-21T05:34:11;3.53;;;3.23;;
944;SDS011;459;48.676;9.034;2023-03-21T05:36:37;2.73;;;2.53;;
944;SDS011;459;48.676;9.034;2023-03-21T05:39:02;3.17;;;2.87;;
944;SDS011;459;48.676;9.034;2023-03-21T05:41:28;3.43;;;2.70;;
944;SDS011;459;48.676;9.034;2023-03-21T05:43:53;3.53;;;3.00;;
944;SDS011;459;48.676;9.034;2023-03-21T05:46:18;3.90;;;3.10;;
944;SDS011;459;48.676;9.034;2023-03-21T05:48:43;3.93;;;3.53;;
944;SDS011;459;48.676;9.034;2023-03-21T05:51:08;4.37;;;3.50;;
944;SDS011;459;48.676;9.034;2023-03-21T05:53:34;3.73;;;2.93;;
944;SDS011;459;48.676;9.034;2023-03-21T05:55:59;2.87;;;2.63;;
944;SDS011;459;48.676;9.034;2023-03-21T05:58:24;3.30;;;2.90;;
944;SDS011;459;48.676;9.034;2023-03-21T06:00:50;4.30;;;3.90;;
944;SDS011;459;48.676;9.034;2023-03-21T06:03:15;4.80;;;4.30;;
944;SDS011;459;48.676;9.034;2023-03-21T06:05:40;3.37;;;3.07;;
944;SDS011;459;48.676;9.034;2023-03-21T06:08:05;4.13;;;3.30;;
944;SDS011;459;48.676;9.034;2023-03-21T06:10:30;4.00;;;3.10;;
944;SDS011;459;48.676;9.034;2023-03-21T06:12:56;5.80;;;2.80;;
944;SDS011;459;48.676;9.034;2023-03-21T06:15:21;3.73;;;3.43;;
944;SDS011;459;48.676;9.034;2023-03-21T06:17:46;4.33;;;3.27;;
944;SDS011;459;48.676;9.034;2023-03-21T06:20:11;6.13;;;3.97;;
944;SDS011;459;48.676;9.034;2023-03-21T06:22:36;5.50;;;5.00;;
944;SDS011;459;48.676;9.034;2023-03-21T06:25:02;5.63;;;5.00;;
944;SDS011;459;48.676;9.034;2023-03-21T06:27:27;5.30;;;4.70;;
944;SDS011;459;48.676;9.034;2023-03-21T06:29:53;4.63;;;4.03;;
944;SDS011;459;48.676;9.034;2023-03-21T06:32:18;5.73;;;4.23;;
944;SDS011;459;48.676;9.034;2023-03-21T06:34:43;8.43;;;3.07;;
944;SDS011;459;48.676;9.034;2023-03-21T06:37:08;3.70;;;3.30;;
944;SDS011;459;48.676;9.034;2023-03-21T06:39:34;3.50;;;2.93;;
944;SDS011;459;48.676;9.034;2023-03-21T06:41:59;4.20;;;3.43;;
944;SDS011;459;48.676;9.034;2023-03-21T06:44:25;4.73;;;3.30;;
944;SDS011;459;48.676;9.034;2023-03-21T06:46:51;4.70;;;3.97;;
944;SDS011;459;48.676;9.034;2023-03-21T06:49:16;4.57;;;3.97;;
944;SDS011;459;48.676;9.034;2023-03-21T06:51:42;5.10;;;3.90;;
944;SDS011;459;48.676;9.034;2023-03-21T06:54:07;3.90;;;3.60;;
944;SDS011;459;48.676;9.034;2023-03-21T06:56:32;5.70;;;4.27;;
944;SDS011;459;48.676;9.034;2023-03-21T06:58:57;4.20;;;3.80;;
944;SDS011;459;48.676;9.034;2023-03-21T07:01:23;4.60;;;4.20;;
944;SDS011;459;48.676;9.034;2023-03-21T07:03:48;4.30;;;3.90;;
944;SDS011;459;48.676;9.034;2023-03-21T07:06:13;4.30;;;3.87;;
944;SDS011;459;48.676;9.034;2023-03-21T07:08:39;4.10;;;3.70;;
944;SDS011;459;48.676;9.034;2023-03-21T07:11:05;5.90;;;4.67;;
944;SDS011;459;48.676;9.034;2023-03-21T07:13:30;3.67;;;3.37;;
944;SDS011;459;48.676;9.034;2023-03-21T07:15:56;3.77;;;3.20;;
944;SDS011;459;48.676;9.034;2023-03-21T07:18:21;4.90;;;4.00;;
944;SDS011;459;48.676;9.034;2023-03-21T07:20:47;5.90;;;3.93;;
944;SDS011;459;48.676;9.034;2023-03-21T07:23:14;3.57;;;3.23;;
944;SDS011;459;48.676;9.034;2023-03-21T07:25:40;3.70;;;3.40;;
944;SDS011;459;48.676;9.034;2023-03-21T07:28:06;3.70;;;3.30;;
944;SDS011;459;48.676;9.034;2023-03-21T07:30:33;4.23;;;3.83;;
944;SDS011;459;48.676;9.034;2023-03-21T07:32:58;4.43;;;3.80;;
944;SDS011;459;48.676;9.034;2023-03-21T07:35:23;4.70;;;3.33;;
944;SDS011;459;48.676;9.034;2023-03-21T07:37:49;4.07;;;3.00;;
944;SDS011;459;48.676;9.034;2023-03-21T07:40:14;3.60;;;3.30;;
944;SDS011;459;48.676;9.034;2023-03-21T07:42:40;3.70;;;3.40;;
944;SDS011;459;48.676;9.034;2023-03-21T07:45:05;4.20;;;3.80;;
944;SDS011;459;48.676;9.034;2023-03-21T07:47:32;5.20;;;2.90;;
944;SDS011;459;48.676;9.034;2023-03-21T07:49:57;4.67;;;3.53;;
944;SDS011;459;48.676;9.034;2023-03-21T07:52:22;4.43;;;3.10;;
944;SDS011;459;48.676;9.034;2023-03-21T07:54:48;4.13;;;3.73;;
944;SDS011;459;48.676;9.034;2023-03-21T07:57:13;6.00;;;3.77;;
944;SDS011;459;48.676;9.034;2023-03-21T07:59:38;4.30;;;3.93;;
944;SDS011;459;48.676;9.034;2023-03-21T08:02:03;3.07;;;2.77;;
944;SDS011;459;48.676;9.034;2023-03-21T08:04:28;4.97;;;3.30;;
944;SDS011;459;48.676;9.034;2023-03-21T08:06:54;4.13;;;3.20;;
944;SDS011;459;48.676;9.034;2023-03-21T08:09:19;4.37;;;2.70;;
944;SDS011;459;48.676;9.034;2023-03-21T08:11:44;3.40;;;2.73;;
944;SDS011;459;48.676;9.034;2023-03-21T08:14:10;2.83;;;2.63;;
944;SDS011;459;48.676;9.034;2023-03-21T08:16:35;3.57;;;2.83;;
944;SDS011;459;48.676;9.034;2023-03-21T08:19:00;2.83;;;2.60;;
944;SDS011;459;48.676;9.034;2023-03-21T08:21:25;3.53;;;3.13;;
944;SDS011;459;48.676;9.034;2023-03-21T08:23:51;3.33;;;2.67;;
944;SDS011;459;48.676;9.034;2023-03-21T08:26:16;2.60;;;2.40;;
944;SDS011;459;48.676;9.034;2023-03-21T08:28:42;3.70;;;3.40;;
944;SDS011;459;48.676;9.034;2023-03-21T08:31:08;3.67;;;2.60;;
944;SDS011;459;48.676;9.034;2023-03-21T08:33:34;6.00;;;2.60;;
944;SDS011;459;48.676;9.034;2023-03-21T08:35:59;3.30;;;2.90;;
944;SDS011;459;48.676;9.034;2023-03-21T08:38:24;2.50;;;2.30;;
944;SDS011;459;48.676;9.034;2023-03-21T08:40:53;4.43;;;2.27;;
944;SDS011;459;48.676;9.034;2023-03-21T08:43:18;2.63;;;1.90;;
944;SDS011;459;48.676;9.034;2023-03-21T08:45:44;2.90;;;2.10;;
944;SDS011;459;48.676;9.034;2023-03-21T08:48:09;2.50;;;2.30;;
944;SDS011;459;48.676;9.034;2023-03-21T08:50:34;2.73;;;2.30;;
944;SDS011;459;48.676;9.034;2023-03-21T08:53:00;1.50;;;1.33;;
944;SDS011;459;48.676;9.034;2023-03-21T08:55:25;2.23;;;1.97;;
944;SDS011;459;48.676;9.034;2023-03-21T08:57:50;2.40;;;2.20;;
944;SDS011;459;48.676;9.034;2023-03-21T09:00:15;3.63;;;2.37;;
944;SDS011;459;48.676;9.034;2023-03-21T09:02:42;2.60;;;2.10;;
944;SDS011;459;48.676;9.034;2023-03-21T09:05:08;3.13;;;1.90;;
944;SDS011;459;48.676;9.034;2023-03-21T09:07:35;2.20;;;1.97;;
944;SDS011;459;48.676;9.034;2023-03-21T09:10:02;2.33;;;2.13;;
944;SDS011;459;48.676;9.034;2023-03-21T09:12:27;5.00;;;2.37;;
944;SDS011;459;48.676;9.034;2023-03-21T09:14:53;3.27;;;2.23;;
944;SDS011;459;48.676;9.034;2023-03-21T09:17:18;4.10;;;2.03;;
944;SDS011;459;48.676;9.034;2023-03-21T09:19:43;1.80;;;1.67;;
944;SDS011;459;48.676;9.034;2023-03-21T09:22:10;3.23;;;2.60;;
944;SDS011;459;48.676;9.034;2023-03-21T09:24:41;2.80;;;2.60;;
944;SDS011;459;48.676;9.034;2023-03-21T09:27:07;3.40;;;3.10;;
944;SDS011;459;48.676;9.034;2023-03-21T09:29:32;2.50;;;2.30;;
944;SDS011;459;48.676;9.034;2023-03-21T09:31:58;2.33;;;1.87;;
944;SDS011;459;48.676;9.034;2023-03-21T09:34:23;2.73;;;2.50;;
944;SDS011;459;48.676;9.034;2023-03-21T09:36:50;2.53;;;2.13;;
944;SDS011;459;48.676;9.034;2023-03-21T09:39:18;2.70;;;2.20;;
944;SDS011;459;48.676;9.034;2023-03-21T09:52:32;4.13;;;2.53;;
944;SDS011;459;48.676;9.034;2023-03-21T09:55:02;2.93;;;2.37;;
944;SDS011;459;48.676;9.034;2023-03-21T09:59:58;2.00;;;1.80;;
944;SDS011;459;48.676;9.034;2023-03-21T10:05:01;2.10;;;1.73;;
944;SDS011;459;48.676;9.034;2023-03-21T10:07:33;1.50;;;1.33;;
944;SDS011;459;48.676;9.034;2023-03-21T10:10:02;2.23;;;1.27;;
944;SDS011;459;48.676;9.034;2023-03-21T10:12:28;4.90;;;2.20;;
944;SDS011;459;48.676;9.034;2023-03-21T10:14:55;2.00;;;1.47;;
944;SDS011;459;48.676;9.034;2023-03-21T10:19:50;1.30;;;1.20;;
944;SDS011;459;48.676;9.034;2023-03-21T10:22:19;1.87;;;1.67;;
944;SDS011;459;48.676;9.034;2023-03-21T10:24:44;2.57;;;2.10;;
944;SDS011;459;48.676;9.034;2023-03-21T10:27:10;2.00;;;1.80;;
944;SDS011;459;48.676;9.034;2023-03-21T10:29:46;2.53;;;2.00;;
944;SDS011;459;48.676;9.034;2023-03-21T10:32:12;1.90;;;1.80;;
944;SDS011;459;48.676;9.034;2023-03-21T10:34:40;4.87;;;1.67;;
944;SDS011;459;48.676;9.034;2023-03-21T10:37:06;2.33;;;2.00;;
944;SDS011;459;48.676;9.034;2023-03-21T10:42:00;2.03;;;1.70;;
944;SDS011;459;48.676;9.034;2023-03-21T10:44:30;2.63;;;2.10;;
944;SDS011;459;48.676;9.034;2023-03-21T10:46:57;2.70;;;2.30;;
944;SDS011;459;48.676;9.034;2023-03-21T10:49:23;3.30;;;3.03;;
944;SDS011;459;48.676;9.034;2023-03-21T10:51:51;2.97;;;2.53;;
944;SDS011;459;48.676;9.034;2023-03-21T10:54:18;1.83;;;1.53;;
944;SDS011;459;48.676;9.034;2023-03-21T10:56:50;3.87;;;3.50;;
944;SDS011;459;48.676;9.034;2023-03-21T10:59:17;2.97;;;2.67;;
944;SDS011;459;48.676;9.034;2023-03-21T11:01:45;3.07;;;2.77;;
944;SDS011;459;48.676;9.034;2023-03-21T11:04:15;4.27;;;2.97;;
944;SDS011;459;48.676;9.034;2023-03-21T11:06:42;2.70;;;2.50;;
944;SDS011;459;48.676;9.034;2023-03-21T11:09:13;4.37;;;2.90;;
944;SDS011;459;48.676;9.034;2023-03-21T11:11:40;2.10;;;1.90;;
944;SDS011;459;48.676;9.034;2023-03-21T11:14:22;3.27;;;2.97;;
944;SDS011;459;48.676;9.034;2023-03-21T11:16:48;3.40;;;3.00;;
944;SDS011;459;48.676;9.034;2023-03-21T11:19:18;4.70;;;2.80;;
944;SDS011;459;48.676;9.034;2023-03-21T11:21:44;3.37;;;3.07;;
944;SDS011;459;48.676;9.034;2023-03-21T11:24:11;3.57;;;3.23;;
944;SDS011;459;48.676;9.034;2023-03-21T11:26:37;3.40;;;3.10;;
944;SDS011;459;48.676;9.034;2023-03-21T11:29:08;3.53;;;2.83;;
944;SDS011;459;48.676;9.034;2023-03-21T11:31:36;3.60;;;3.30;;
944;SDS011;459;48.676;9.034;2023-03-21T11:34:04;3.60;;;2.87;;
944;SDS011;459;48.676;9.034;2023-03-21T11:36:31;4.03;;;3.57;;
944;SDS011;459;48.676;9.034;2023-03-21T11:38:58;3.63;;;3.33;;
944;SDS011;459;48.676;9.034;2023-03-21T11:41:30;3.23;;;2.93;;
944;SDS011;459;48.676;9.034;2023-03-21T11:43:56;3.50;;;3.20;;
944;SDS011;459;48.676;9.034;2023-03-21T11:46:22;3.43;;;2.90;;
944;SDS011;459;48.676;9.034;2023-03-21T11:48:47;4.37;;;3.50;;
944;SDS011;459;48.676;9.034;2023-03-21T11:53:48;5.20;;;4.63;;
944;SDS011;459;48.676;9.034;2023-03-21T12:04:47;2.87;;;2.40;;
944;SDS011;459;48.676;9.034;2023-03-21T12:07:26;2.27;;;2.00;;
944;SDS011;459;48.676;9.034;2023-03-21T12:15:21;2.47;;;2.27;;
944;SDS011;459;48.676;9.034;2023-03-21T12:23:01;2.33;;;2.13;;
944;SDS011;459;48.676;9.034;2023-03-21T12:25:41;4.00;;;1.37;;
944;SDS011;459;48.676;9.034;2023-03-21T12:38:08;2.10;;;1.85;;
944;SDS011;459;48.676;9.034;2023-03-21T12:43:30;3.10;;;1.80;;
944;SDS011;459;48.676;9.034;2023-03-21T12:45:58;1.50;;;1.10;;
944;SDS011;459;48.676;9.034;2023-03-21T12:50:53;1.90;;;1.30;;
944;SDS011;459;48.676;9.034;2023-03-21T12:53:33;1.80;;;1.27;;
944;SDS011;459;48.676;9.034;2023-03-21T12:56:00;3.57;;;1.20;;
944;SDS011;459;48.676;9.034;2023-03-21T12:58:26;1.20;;;1.03;;
944;SDS011;459;48.676;9.034;2023-03-21T13:00:56;2.40;;;1.33;;
944;SDS011;459;48.676;9.034;2023-03-21T13:03:23;1.77;;;1.20;;
944;SDS011;459;48.676;9.034;2023-03-21T13:05:54;1.40;;;1.27;;
944;SDS011;459;48.676;9.034;2023-03-21T13:10:57;1.60;;;1.10;;
944;SDS011;459;48.676;9.034;2023-03-21T13:13:30;2.40;;;1.10;;
944;SDS011;459;48.676;9.034;2023-03-21T13:21:14;5.00;;;1.97;;
944;SDS011;459;48.676;9.034;2023-03-21T13:23:43;1.70;;;1.60;;
944;SDS011;459;48.676;9.034;2023-03-21T13:26:18;1.73;;;1.30;;
944;SDS011;459;48.676;9.034;2023-03-21T13:28:43;1.87;;;1.17;;
944;SDS011;459;48.676;9.034;2023-03-21T13:31:19;2.27;;;1.80;;
944;SDS011;459;48.676;9.034;2023-03-21T13:33:45;4.17;;;1.53;;
944;SDS011;459;48.676;9.034;2023-03-21T13:36:11;2.43;;;2.23;;
944;SDS011;459;48.676;9.034;2023-03-21T13:38:37;2.30;;;1.87;;
944;SDS011;459;48.676;9.034;2023-03-21T13:46:08;2.63;;;1.70;;
944;SDS011;459;48.676;9.034;2023-03-21T13:48:46;8.07;;;2.70;;
944;SDS011;459;48.676;9.034;2023-03-21T13:53:59;2.60;;;1.80;;
944;SDS011;459;48.676;9.034;2023-03-21T13:56:24;2.50;;;2.13;;
944;SDS011;459;48.676;9.034;2023-03-21T13:58:51;4.03;;;2.13;;
944;SDS011;459;48.676;9.034;2023-03-21T14:03:43;2.30;;;2.10;;
944;SDS011;459;48.676;9.034;2023-03-21T14:06:08;2.50;;;2.13;;
944;SDS011;459;48.676;9.034;2023-03-21T14:08:34;3.20;;;2.60;;
944;SDS011;459;48.676;9.034;2023-03-21T14:11:02;2.30;;;1.90;;
944;SDS011;459;48.676;9.034;2023-03-21T14:13:28;2.37;;;2.17;;
944;SDS011;459;48.676;9.034;2023-03-21T14:15:54;3.67;;;1.90;;
944;SDS011;459;48.676;9.034;2023-03-21T14:18:22;2.73;;;2.53;;
944;SDS011;459;48.676;9.034;2023-03-21T14:20:51;2.63;;;2.00;;
944;SDS011;459;48.676;9.034;2023-03-21T14:23:17;4.03;;;2.10;;
944;SDS011;459;48.676;9.034;2023-03-21T14:25:43;3.67;;;2.03;;
944;SDS011;459;48.676;9.034;2023-03-21T14:28:14;2.67;;;2.23;;
944;SDS011;459;48.676;9.034;2023-03-21T14:30:41;1.70;;;1.60;;
944;SDS011;459;48.676;9.034;2023-03-21T14:33:10;3.73;;;2.00;;
944;SDS011;459;48.676;9.034;2023-03-21T14:35:37;4.13;;;1.70;;
944;SDS011;459;48.676;9.034;2023-03-21T14:38:05;3.10;;;1.93;;
944;SDS011;459;48.676;9.034;2023-03-21T14:40:32;2.40;;;2.10;;
944;SDS011;459;48.676;9.034;2023-03-21T14:42:59;3.63;;;2.43;;
944;SDS011;459;48.676;9.034;2023-03-21T14:45:28;2.37;;;1.93;;
944;SDS011;459;48.676;9.034;2023-03-21T14:47:58;3.23;;;2.13;;
944;SDS011;459;48.676;9.034;2023-03-21T14:50:27;2.20;;;1.93;;
944;SDS011;459;48.676;9.034;2023-03-21T14:52:53;2.13;;;1.53;;
944;SDS011;459;48.676;9.034;2023-03-21T14:55:19;1.90;;;1.50;;
944;SDS011;459;48.676;9.034;2023-03-21T14:57:44;2.27;;;1.50;;
944;SDS011;459;48.676;9.034;2023-03-21T15:00:13;1.50;;;1.40;;
944;SDS011;459;48.676;9.034;2023-03-21T15:02:41;2.30;;;1.10;;
944;SDS011;459;48.676;9.034;2023-03-21T15:05:09;1.00;;;0.80;;
944;SDS011;459;48.676;9.034;2023-03-21T15:07:35;2.87;;;1.17;;
944;SDS011;459;48.676;9.034;2023-03-21T15:10:03;0.93;;;0.90;;
944;SDS011;459;48.676;9.034;2023-03-21T15:12:29;1.73;;;1.10;;
944;SDS011;459;48.676;9.034;2023-03-21T15:14:55;1.30;;;0.90;;
944;SDS011;459;48.676;9.034;2023-03-21T15:17:21;0.90;;;0.80;;
944;SDS011;459;48.676;9.034;2023-03-21T15:19:46;1.43;;;0.93;;
944;SDS011;459;48.676;9.034;2023-03-21T15:22:14;1.30;;;0.90;;
944;SDS011;459;48.676;9.034;2023-03-21T15:24:40;0.90;;;0.80;;
944;SDS011;459;48.676;9.034;2023-03-21T15:27:12;2.70;;;1.00;;
944;SDS011;459;48.676;9.034;2023-03-21T15:29:37;1.20;;;0.90;;
944;SDS011;459;48.676;9.034;2023-03-21T15:32:04;0.93;;;0.70;;
944;SDS011;459;48.676;9.034;2023-03-21T15:34:30;1.10;;;0.60;;
944;SDS011;459;48.676;9.034;2023-03-21T15:36:57;1.40;;;1.10;;
944;SDS011;459;48.676;9.034;2023-03-21T15:39:26;0.90;;;0.77;;
944;SDS011;459;48.676;9.034;2023-03-21T15:41:55;1.80;;;0.80;;
944;SDS011;459;48.676;9.034;2023-03-21T15:44:21;1.40;;;1.00;;
944;SDS011;459;48.676;9.034;2023-03-21T15:46:47;2.90;;;1.50;;
944;SDS011;459;48.676;9.034;2023-03-21T15:51:48;2.50;;;2.07;;
944;SDS011;459;48.676;9.034;2023-03-21T15:54:16;3.57;;;1.90;;
944;SDS011;459;48.676;9.034;2023-03-21T15:56:43;11.03;;;2.70;;
944;SDS011;459;48.676;9.034;2023-03-21T15:59:11;3.07;;;2.27;;
944;SDS011;459;48.676;9.034;2023-03-21T16:01:37;3.03;;;2.37;;
944;SDS011;459;48.676;9.034;2023-03-21T16:04:10;2.63;;;1.93;;
944;SDS011;459;48.676;9.034;2023-03-21T16:06:37;3.90;;;2.50;;
944;SDS011;459;48.676;9.034;2023-03-21T16:09:17;6.67;;;2.37;;
944;SDS011;459;48.676;9.034;2023-03-21T16:11:48;3.83;;;2.57;;
944;SDS011;459;48.676;9.034;2023-03-21T16:14:13;4.37;;;2.40;;
944;SDS011;459;48.676;9.034;2023-03-21T16:16:39;3.10;;;2.07;;
944;SDS011;459;48.676;9.034;2023-03-21T16:19:05;3.93;;;2.30;;
944;SDS011;459;48.676;9.034;2023-03-21T16:21:31;4.03;;;2.30;;
944;SDS011;459;48.676;9.034;2023-03-21T16:23:58;3.00;;;2.20;;
944;SDS011;459;48.676;9.034;2023-03-21T16:26:24;4.10;;;2.10;;
944;SDS011;459;48.676;9.034;2023-03-21T16:28:49;5.70;;;2.70;;
944;SDS011;459;48.676;9.034;2023-03-21T16:31:16;2.90;;;2.37;;
944;SDS011;459;48.676;9.034;2023-03-21T16:33:42;2.90;;;2.60;;
944;SDS011;459;48.676;9.034;2023-03-21T16:36:11;2.50;;;2.20;;
944;SDS011;459;48.676;9.034;2023-03-21T16:38:36;6.30;;;2.57;;
944;SDS011;459;48.676;9.034;2023-03-21T16:41:01;7.10;;;3.10;;
944;SDS011;459;48.676;9.034;2023-03-21T16:43:28;2.30;;;2.10;;
944;SDS011;459;48.676;9.034;2023-03-21T16:45:53;2.23;;;2.03;;
944;SDS011;459;48.676;9.034;2023-03-21T16:48:18;2.90;;;2.40;;
944;SDS011;459;48.676;9.034;2023-03-21T16:50:46;5.23;;;2.40;;
944;SDS011;459;48.676;9.034;2023-03-21T16:53:12;3.00;;;2.70;;
944;SDS011;459;48.676;9.034;2023-03-21T16:55:37;5.40;;;3.50;;
944;SDS011;459;48.676;9.034;2023-03-21T16:58:03;3.50;;;2.30;;
944;SDS011;459;48.676;9.034;2023-03-21T17:00:28;3.83;;;2.40;;
944;SDS011;459;48.676;9.034;2023-03-21T17:02:54;7.10;;;3.47;;
944;SDS011;459;48.676;9.034;2023-03-21T17:05:21;4.47;;;2.73;;
944;SDS011;459;48.676;9.034;2023-03-21T17:07:46;3.77;;;2.60;;
944;SDS011;459;48.676;9.034;2023-03-21T17:10:16;4.10;;;2.80;;
944;SDS011;459;48.676;9.034;2023-03-21T17:12:42;2.83;;;2.53;;
944;SDS011;459;48.676;9.034;2023-03-21T17:15:08;3.63;;;2.73;;
944;SDS011;459;48.676;9.034;2023-03-21T17:17:33;2.63;;;2.23;;
944;SDS011;459;48.676;9.034;2023-03-21T17:19:58;3.93;;;2.37;;
944;SDS011;459;48.676;9.034;2023-03-21T17:22:23;4.17;;;2.27;;
944;SDS011;459;48.676;9.034;2023-03-21T17:24:49;3.27;;;2.43;;
944;SDS011;459;48.676;9.034;2023-03-21T17:27:14;3.23;;;2.93;;